Aeroporto :
LOGIN :

Iscrizione | Disclaimer

   EN    FR    IT 

 










Sommario :    VFR   VFR Marginale   IFR   IFR Intensivo   IFR Molto Intensivo
Visibilità : 
Base nubi : 
>= 8 km
>= 3000ft
5 / 8 km
1000 / 3000 ft
1500m / 5 km
500 / 1000 ft
800 / 1500m
200 / 500 ft
< 800m
< 200 ft
Simboli :   Temporali  Nebbia  Neve Forte  Precipitazioni Forti  Vento > 20 kt
SIGMETs :   Varie  Temporali  Ghiacco  Turbolenza  Onda orograficha  Ceneri Vulcaniche







- Altitudine del aeroporto : -15 ft
- Codice IATA : RTM


EHRD - Rotterdam Zestienhoven

ULTIMO METAR :
  • 252325Z AUTO 18007KT 150V210 9999 NSC 10/08 Q1008 NOSIG

METARs OBSOLETI :
  • 252255Z AUTO 17006KT 9999 NSC 10/08 Q1008 NOSIG
  • 252225Z AUTO 17007KT 140V200 9999 NSC 11/08 Q1008 NOSIG
  • 252155Z AUTO 16008KT 9999 NSC 11/08 Q1007 NOSIG
  • 252125Z AUTO 20007KT 9999 NSC 11/08 Q1007 NOSIG
  • 252055Z AUTO 18007KT 120V210 9999 NSC 11/08 Q1007 NOSIG

TAF TAF EHRD
Valido dal 26 a 00 ore il 27 a 06 ore UTC


252318Z 2600/2706 18007KT CAVOK
BECMG 2609/2612 24013KT
PROB30
TEMPO 2611/2614 6000 SHRA SCT020CB
BECMG 2615/2618 18007KT
PROB40
TEMPO 2618/2623 21015G25KT 6000 SHRA SCT040CB
BECMG 2621/2624 21012KT
BECMG 2703/2706 18014KT 7000 -RA SCT012 BKN018
PROB30
TEMPO 2704/2706 4000 RADZ BKN012
Nessun NOTAM noto per questo aeroporto.



MetMap, La meteo Aeronautica in un colpo d'occhio ! - Copyright ORBIFLY Dicembre 2007 - Disclaimer

ORBIFLY MET'MAP TEAM :

Programmazione e sviluppo : Alexandra Zaïnal
Concezione e sviluppo : Baudouin d'Aumeries
Co-Programmazione e sviluppo : Marc-Olivier Méhu
Supporto tecnico e logistico : Manuel Goepfert
Aiuto per la traduzione : Arnaldo La Scala

Contatto : metmap@orbifly.com




FONTI E CREDITI :

   NOAA